Time;durP1;ratioP1;P1;durP2;ratioP2;P2;SDS_P1;SDS_P2;PMS_P1;PMS_P2;Temp;Humidity;BMP_temperature;BMP_pressure;BME280_temperature;BME280_humidity;BME280_pressure;Samples;Min_cycle;Max_cycle;Signal;HPM_P1;HPM_P2
2022/05/05 00:01:01;;;;;;;0.93;0.93;;;;;;;;;;5014986;28;20209;-80
2022/05/05 00:03:26;;;;;;;4.43;1.97;;;7.70;99.90;;;;;;4998429;28;20193;-79
2022/05/05 00:05:52;;;;;;;4.20;1.37;;;;;;;;;;4997862;28;20271;-80
2022/05/05 00:08:18;;;;;;;3.87;1.83;;;;;;;;;;4981895;28;20185;-80
2022/05/05 00:16:13;;;;;;;1.07;1.00;;;;;;;;;;5015506;28;20256;-80
2022/05/05 00:18:39;;;;;;;3.20;1.70;;;;;;;;;;5015126;28;20181;-80
2022/05/05 00:21:05;;;;;;;3.17;1.53;;;;;;;;;;4981631;28;20267;-79
2022/05/05 00:23:31;;;;;;;2.87;1.40;;;;;;;;;;4998195;28;20181;-79
2022/05/05 00:25:57;;;;;;;3.77;2.50;;;;;;;;;;4981575;28;20193;-80
2022/05/05 00:28:23;;;;;;;5.43;2.37;;;;;;;;;;4997734;28;20538;-79
2022/05/05 00:30:49;;;;;;;2.00;1.70;;;;;;;;;;4997302;28;20741;-80
2022/05/05 00:33:15;;;;;;;3.37;2.10;;;;;;;;;;4980822;28;20292;-80
2022/05/05 00:35:41;;;;;;;4.10;1.40;;;;;;;;;;4996974;28;20221;-81
2022/05/05 00:38:07;;;;;;;3.60;1.20;;;;;;;;;;4997171;28;20649;-80
2022/05/05 00:40:33;;;;;;;3.57;1.90;;;7.10;99.90;;;;;;5014215;28;20181;-80
2022/05/05 00:42:59;;;;;;;1.80;1.53;;;6.70;99.90;;;;;;4980416;28;20181;-80
2022/05/05 00:45:25;;;;;;;2.57;1.57;;;;;;;;;;4996946;28;20213;-81
2022/05/05 00:47:51;;;;;;;3.37;2.00;;;;;;;;;;4996862;28;20274;-80
2022/05/05 00:50:20;;;;;;;1.93;1.53;;;6.90;93.10;;;;;;4980553;28;20608;-80
2022/05/05 00:52:46;;;;;;;2.47;1.57;;;;;;;;;;5014544;28;20177;-81
2022/05/05 00:55:12;;;;;;;1.73;1.50;;;;;;;;;;4996803;28;20200;-80
2022/05/05 00:57:38;;;;;;;1.53;1.27;;;;;;;;;;4996483;28;20233;-80
2022/05/05 01:00:04;;;;;;;2.23;1.30;;;6.80;99.90;;;;;;5013862;28;20209;-81
2022/05/05 01:02:32;;;;;;;1.27;1.00;;;6.70;95.60;;;;;;4996605;28;20185;-81
2022/05/05 01:04:58;;;;;;;4.20;1.47;;;;;;;;;;5013782;28;20184;-81
2022/05/05 01:07:25;;;;;;;1.37;1.20;;;;;;;;;;5013794;28;20181;-80
2022/05/05 01:09:51;;;;;;;1.53;1.10;;;;;;;;;;5013773;28;20173;-80
2022/05/05 01:12:17;;;;;;;2.10;1.53;;;;;;;;;;5013809;28;20184;-80
2022/05/05 01:14:44;;;;;;;1.60;1.43;;;;;;;;;;5013673;28;20188;-80
2022/05/05 01:17:10;;;;;;;4.03;1.40;;;;;;;;;;5013631;28;20209;-80
2022/05/05 01:19:36;;;;;;;1.33;1.20;;;;;;;;;;5013960;28;20177;-80
2022/05/05 01:22:03;;;;;;;1.50;1.27;;;;;;;;;;4996328;28;20196;-79
2022/05/05 01:29:59;;;;;;;1.90;1.40;;;;;;;;;;5013895;28;20633;-80
2022/05/05 01:32:32;;;;;;;1.30;1.20;;;6.80;99.90;;;;;;5014026;28;20704;-81
2022/05/05 01:34:59;;;;;;;1.00;1.00;;;6.30;99.90;;;;;;5013794;28;20181;-80
2022/05/05 01:37:25;;;;;;;4.17;2.33;;;;;;;;;;5013550;28;20209;-80
2022/05/05 01:39:51;;;;;;;1.40;1.30;;;;;;;;;;5013513;28;20181;-80
2022/05/05 01:42:17;;;;;;;1.83;1.50;;;;;;;;;;5013095;28;20192;-80
2022/05/05 01:44:43;;;;;;;1.93;1.73;;;;;;;;;;4995957;28;20529;-81
2022/05/05 01:47:09;;;;;;;2.67;1.73;;;;;;;;;;5012985;28;20185;-80
2022/05/05 01:49:35;;;;;;;1.40;1.30;;;;;;;;;;4995960;28;20181;-80
2022/05/05 01:52:01;;;;;;;1.77;1.20;;;;;;;;;;5013305;28;20606;-80
2022/05/05 01:54:27;;;;;;;5.33;1.47;;;;;;;;;;5013459;28;20257;-81
2022/05/05 01:56:53;;;;;;;1.27;1.17;;;;;;;;;;4979670;28;20268;-80
2022/05/05 01:59:19;;;;;;;2.47;1.40;;;;;;;;;;4995852;28;20227;-81
2022/05/05 02:01:45;;;;;;;1.17;1.00;;;;;;;;;;4995908;28;20597;-80
2022/05/05 02:04:11;;;;;;;1.67;1.33;;;;;;;;;;5013292;28;20188;-80
2022/05/05 02:06:37;;;;;;;2.67;1.30;;;;;;;;;;5013937;28;20196;-80
2022/05/05 02:09:03;;;;;;;1.40;1.10;;;;;;;;;;5013511;28;20618;-81
2022/05/05 02:11:30;;;;;;;1.40;1.23;;;;;;;;;;5013602;28;20185;-80
2022/05/05 02:13:55;;;;;;;1.60;1.10;;;;;;;;;;4980138;28;20246;-81
2022/05/05 02:16:21;;;;;;;2.83;1.23;;;;;;;;;;5013134;28;20723;-81
2022/05/05 02:18:47;;;;;;;7.10;1.17;;;;;;;;;;5013869;28;20188;-80
2022/05/05 02:21:13;;;;;;;5.27;1.60;;;;;;;;;;5017391;28;20507;-80
2022/05/05 02:23:39;;;;;;;2.00;1.60;;;;;;;;;;4983567;28;20221;-80
2022/05/05 02:26:06;;;;;;;1.00;0.97;;;;;;;;;;4999766;28;20284;-82
2022/05/05 02:28:32;;;;;;;5.93;1.83;;;;;;;;;;5016980;28;20589;-81
2022/05/05 02:30:58;;;;;;;1.63;1.53;;;;;;;;;;4999517;28;20212;-80
2022/05/05 02:33:24;;;;;;;2.53;1.17;;;;;;;;;;5017085;28;20174;-80
2022/05/05 02:38:42;;;;;;;4.43;1.77;;;;;;;;;;5017562;28;20615;-79
2022/05/05 02:38:46;;;;;;;2.37;1.60;;;;;;;;;;5017248;28;20267;-80
2022/05/05 02:41:12;;;;;;;5.53;1.47;;;;;;;;;;5000170;28;20369;-81
2022/05/05 02:43:38;;;;;;;0.83;0.73;;;;;;;;;;5016767;28;20232;-80
2022/05/05 02:46:04;;;;;;;0.87;0.83;;;;;;;;;;4999307;28;20192;-80
2022/05/05 02:48:30;;;;;;;1.47;1.30;;;;;;;;;;5019195;28;20181;-82
2022/05/05 02:50:56;;;;;;;1.73;1.20;;;;;;;;;;5002427;28;20637;-80
2022/05/05 02:56:07;;;;;;;1.47;1.23;;;;;;;;;;5020276;28;20612;-80
2022/05/05 02:58:33;;;;;;;2.67;1.73;;;;;;;;;;5000224;28;20228;-80
2022/05/05 03:00:59;;;;;;;1.63;1.20;;;;;;;;;;5040978;28;20177;-81
2022/05/05 03:03:25;;;;;;;1.10;1.10;;;;;;;;;;5040572;28;20194;-81
2022/05/05 03:05:51;;;;;;;4.40;1.63;;;;;;;;;;5041001;28;20189;-80
2022/05/05 03:08:17;;;;;;;2.60;1.60;;;;;;;;;;5029537;28;20193;-80
2022/05/05 03:10:43;;;;;;;1.80;1.20;;;;;;;;;;5004428;28;20190;-80
2022/05/05 03:13:09;;;;;;;1.83;1.73;;;;;;;;;;5029122;28;20161;-81
2022/05/05 03:15:35;;;;;;;1.33;1.23;;;;;;;;;;5040324;28;20204;-81
2022/05/05 03:18:01;;;;;;;1.63;1.20;;;;;;;;;;5023662;28;20185;-80
2022/05/05 03:20:27;;;;;;;0.97;0.93;;;;;;;;;;5037898;28;20184;-81
2022/05/05 03:22:53;;;;;;;1.17;1.17;;;;;;;;;;5016485;28;20174;-81
2022/05/05 03:25:19;;;;;;;1.20;1.10;;;;;;;;;;4998050;28;20236;-81
2022/05/05 03:27:45;;;;;;;0.90;0.90;;;;;;;;;;5016060;28;20239;-81
2022/05/05 03:30:11;;;;;;;2.43;1.10;;;;;;;;;;4997478;28;20186;-81
2022/05/05 03:32:37;;;;;;;0.90;0.90;;;;;;;;;;5013280;28;20232;-80
2022/05/05 03:35:03;;;;;;;1.63;1.30;;;;;;;;;;5013386;28;20189;-82
2022/05/05 03:37:33;;;;;;;4.77;1.47;;;;;;;;;;5015371;28;20216;-82
2022/05/05 03:39:59;;;;;;;1.57;1.13;;;;;;;;;;5025714;28;20196;-82
2022/05/05 03:42:25;;;;;;;1.33;0.90;;;;;;;;;;5013709;28;20268;-82
2022/05/05 03:44:51;;;;;;;2.00;1.70;;;;;;;;;;5013680;28;20181;-82
2022/05/05 03:47:17;;;;;;;1.50;1.40;;;;;;;;;;5000710;28;20248;-83
2022/05/05 03:49:43;;;;;;;1.20;1.13;;;;;;;;;;4977659;28;20213;-81
2022/05/05 03:52:09;;;;;;;1.10;0.93;;;;;;;;;;4994616;28;20224;-80
2022/05/05 03:54:35;;;;;;;0.93;0.87;;;;;;;;;;4995811;28;20224;-82
2022/05/05 03:57:01;;;;;;;1.27;1.17;;;;;;;;;;5013165;28;20339;-81
2022/05/05 03:59:27;;;;;;;0.90;0.90;;;;;;;;;;4995985;28;20192;-82
2022/05/05 04:01:53;;;;;;;1.30;1.20;;;;;;;;;;4979904;28;20255;-82
2022/05/05 04:04:19;;;;;;;3.30;1.83;;;;;;;;;;5012563;28;20242;-83
2022/05/05 04:06:46;;;;;;;4.60;1.43;;;;;;;;;;4995864;28;20201;-82
2022/05/05 04:09:12;;;;;;;1.83;1.73;;;;;;;;;;5013154;28;20247;-81
2022/05/05 04:11:38;;;;;;;1.20;1.10;;;;;;;;;;5013482;28;20635;-82
2022/05/05 04:14:04;;;;;;;0.90;0.90;;;;;;;;;;5012680;28;20704;-81
2022/05/05 04:16:31;;;;;;;1.80;1.33;;;;;;;;;;5013154;28;20211;-81
2022/05/05 04:18:58;;;;;;;7.17;1.40;;;;;;;;;;5013562;28;20623;-82
2022/05/05 04:21:24;;;;;;;1.90;1.00;;;;;;;;;;5008759;28;20193;-81
2022/05/05 04:23:50;;;;;;;1.37;1.27;;;;;;;;;;5024956;28;20327;-81
2022/05/05 04:26:17;;;;;;;0.70;0.70;;;;;;;;;;4998004;28;20227;-82
2022/05/05 04:28:44;;;;;;;2.57;1.23;;;;;;;;;;4995957;28;20185;-82
2022/05/05 04:31:11;;;;;;;1.10;1.00;;;;;;;;;;4981469;28;20281;-80
2022/05/05 04:33:38;;;;;;;1.33;0.77;;;;;;;;;;4990553;28;20185;-81
2022/05/05 04:36:04;;;;;;;1.53;0.80;;;;;;;;;;5014504;28;20300;-82
2022/05/05 04:38:30;;;;;;;1.47;1.23;;;;;;;;;;4998361;28;20193;-80
2022/05/05 04:40:56;;;;;;;3.60;1.10;;;;;;;;;;4981636;28;20729;-80
2022/05/05 04:43:23;;;;;;;0.80;0.80;;;;;;;;;;4986194;28;20196;-82
2022/05/05 04:45:49;;;;;;;1.07;0.93;;;;;;;;;;5015332;28;20227;-83
2022/05/05 04:48:15;;;;;;;1.50;0.90;;;;;;;;;;4991959;28;20253;-82
2022/05/05 04:50:41;;;;;;;0.80;0.80;;;;;;;;;;4983818;28;20196;-82
2022/05/05 04:53:07;;;;;;;1.33;1.20;;;;;;;;;;4976450;28;20198;-82
2022/05/05 04:55:33;;;;;;;0.87;0.87;;;;;;;;;;5008674;28;20193;-82
2022/05/05 04:57:59;;;;;;;0.87;0.87;;;;;;;;;;4992114;28;20660;-81
2022/05/05 05:00:25;;;;;;;0.80;0.80;;;;;;;;;;5018999;28;20208;-81
2022/05/05 05:02:51;;;;;;;1.70;1.20;;;;;;;;;;5020148;28;20192;-82
2022/05/05 05:05:17;;;;;;;3.37;1.30;;;;;;;;;;5004975;28;20637;-81
2022/05/05 05:07:43;;;;;;;0.77;0.77;;;;;;;;;;5017807;28;20193;-82
2022/05/05 05:10:10;;;;;;;1.73;1.20;;;;;;;;;;4999822;28;20551;-81
2022/05/05 05:12:36;;;;;;;1.37;0.87;;;;;;;;;;5016115;28;20247;-82
2022/05/05 05:15:02;;;;;;;1.33;1.00;;;;;;;;;;5002352;28;20255;-81
2022/05/05 05:17:28;;;;;;;0.50;0.50;;;;;;;;;;5020541;28;20236;-80
2022/05/05 05:19:54;;;;;;;1.73;1.00;;;;;;;;;;5020887;28;20177;-79
2022/05/05 05:22:20;;;;;;;3.33;0.90;;;;;;;;;;5004837;28;20177;-80
2022/05/05 05:24:46;;;;;;;1.20;1.10;;;;;;;;;;5003278;28;20209;-79
2022/05/05 05:27:12;;;;;;;1.33;1.20;;;;;;;;;;4999881;28;20712;-79
2022/05/05 05:29:38;;;;;;;1.40;1.30;;;;;;;;;;4997511;28;20181;-79
2022/05/05 05:32:05;;;;;;;4.00;1.00;;;;;;;;;;4998627;28;20193;-79
2022/05/05 05:34:31;;;;;;;2.70;0.83;;;;;;;;;;4997800;28;20216;-80
2022/05/05 05:36:57;;;;;;;0.77;0.77;;;;;;;;;;5020449;28;20208;-81
2022/05/05 05:39:23;;;;;;;1.23;1.13;;;;;;;;;;5011126;28;20261;-84
2022/05/05 05:41:49;;;;;;;1.00;0.90;;;;;;;;;;5030360;28;20188;-79
2022/05/05 05:44:15;;;;;;;1.17;1.07;;;;;;;;;;5012458;28;20320;-81
2022/05/05 05:46:41;;;;;;;1.00;0.73;;;;;;;;;;5009448;28;20189;-80
2022/05/05 05:49:09;;;;;;;8.10;1.13;;;;;;;;;;4990961;28;20205;-81
2022/05/05 05:51:35;;;;;;;2.70;1.40;;;;;;;;;;4999087;28;20177;-81
2022/05/05 05:54:01;;;;;;;2.33;1.00;;;;;;;;;;4995889;28;20696;-80
2022/05/05 05:56:27;;;;;;;0.87;0.87;;;;;;;;;;5013480;28;20209;-80
2022/05/05 05:58:53;;;;;;;3.47;1.00;;;11.40;99.90;;;;;;5013665;28;20200;-80
2022/05/05 06:01:19;;;;;;;1.20;1.07;;;;;;;;;;5013325;28;20205;-81
2022/05/05 06:03:54;;;;;;;1.00;0.90;;;;;;;;;;4979995;28;20704;-81
2022/05/05 06:06:27;;;;;;;1.30;1.13;;;;;;;;;;4992708;28;20188;-81
2022/05/05 06:08:53;;;;;;;2.28;1.25;;;;;;;;;;5012865;28;20181;-81
2022/05/05 06:11:21;;;;;;;1.23;0.73;;;;;;;;;;4995302;28;20669;-82
2022/05/05 06:13:48;;;;;;;0.85;0.75;;;11.70;75.20;;;;;;4978586;28;20592;-82
2022/05/05 06:16:14;;;;;;;6.53;1.40;;;;;;;;;;5009400;28;20300;-82
2022/05/05 06:18:40;;;;;;;1.65;1.08;;;;;;;;;;4993462;28;20264;-82
2022/05/05 06:21:07;;;;;;;0.82;0.82;;;;;;;;;;5010901;28;20193;-82
2022/05/05 06:23:33;;;;;;;0.70;0.70;;;;;;;;;;4988512;28;20541;-84
2022/05/05 06:25:59;;;;;;;1.05;0.98;;;;;;;;;;5011432;28;20525;-83
2022/05/05 06:28:25;;;;;;;1.38;0.93;;;12.90;88.50;;;;;;4977919;28;20189;-83
2022/05/05 06:30:51;;;;;;;1.08;0.98;;;;;;;;;;4993273;28;20169;-83
2022/05/05 06:33:17;;;;;;;0.80;0.63;;;;;;;;;;4994281;28;20264;-83
2022/05/05 06:35:43;;;;;;;1.45;1.05;;;;;;;;;;4994520;28;20216;-82
2022/05/05 06:38:09;;;;;;;1.33;0.88;;;;;;;;;;4992967;28;20189;-83
2022/05/05 06:40:35;;;;;;;0.93;0.90;;;;;;;;;;4993774;28;20181;-85
2022/05/05 06:43:01;;;;;;;0.75;0.75;;;;;;;;;;4994610;28;20189;-82
2022/05/05 06:45:28;;;;;;;0.88;0.80;;;;;;;;;;5011514;28;20239;-83
2022/05/05 06:47:54;;;;;;;0.73;0.73;;;;;;;;;;4993082;28;20289;-84
2022/05/05 06:50:21;;;;;;;1.00;0.75;;;;;;;;;;4993224;28;20185;-84
2022/05/05 06:52:48;;;;;;;1.23;0.88;;;;;;;;;;4993915;28;20551;-82
2022/05/05 06:55:15;;;;;;;4.15;1.45;;;;;;;;;;4994846;28;20192;-83
2022/05/05 06:57:41;;;;;;;1.15;0.90;;;;;;;;;;5009823;28;20771;-85
2022/05/05 07:00:07;;;;;;;0.82;0.68;;;;;;;;;;4993480;28;20188;-84
2022/05/05 07:02:33;;;;;;;0.95;0.88;;;;;;;;;;5012227;28;20196;-82
2022/05/05 07:07:44;;;;;;;0.65;0.65;;;;;;;;;;5015557;28;20545;-84
2022/05/05 07:12:54;;;;;;;0.90;0.85;;;;;;;;;;5000716;28;20216;-83
2022/05/05 07:15:20;;;;;;;0.90;0.85;;;;;;;;;;4981473;28;20189;-82
2022/05/05 07:17:47;;;;;;;1.33;0.98;;;;;;;;;;4981504;28;20212;-83
2022/05/05 07:20:13;;;;;;;2.22;0.93;;;;;;;;;;5015691;28;20192;-83
2022/05/05 07:22:40;;;;;;;1.08;0.80;;;;;;;;;;5015255;28;20177;-86
2022/05/05 07:25:07;;;;;;;1.52;1.02;;;;;;;;;;4997798;28;20216;-83
2022/05/05 07:27:33;;;;;;;7.40;0.98;;;;;;;;;;4997904;28;20227;-83
2022/05/05 07:29:59;;;;;;;2.03;0.70;;;;;;;;;;4997619;28;20192;-82
2022/05/05 07:32:25;;;;;;;0.73;0.73;;;;;;;;;;4997929;28;20181;-82
2022/05/05 07:34:51;;;;;;;3.03;0.73;;;;;;;;;;5015366;28;20181;-82
2022/05/05 07:37:17;;;;;;;1.55;0.65;;;;;;;;;;4998271;28;20658;-82
2022/05/05 07:39:43;;;;;;;0.82;0.57;;;;;;;;;;5015581;28;20185;-84
2022/05/05 07:42:09;;;;;;;2.83;0.90;;;15.50;95.40;;;;;;4998201;28;20185;-82
2022/05/05 07:44:35;;;;;;;1.08;0.98;;;;;;;;;;4997899;28;20226;-83
2022/05/05 07:47:01;;;;;;;1.60;0.70;;;;;;;;;;4997629;28;20219;-83
2022/05/05 07:49:27;;;;;;;1.55;0.93;;;;;;;;;;4997838;28;20713;-83
2022/05/05 07:51:53;;;;;;;1.00;0.90;;;;;;;;;;4997202;28;20280;-84
2022/05/05 07:54:34;;;;;;;2.60;0.70;;;16.10;70.60;;;;;;4997931;28;20174;-82
2022/05/05 07:57:00;;;;;;;0.75;0.75;;;16.20;94.50;;;;;;5014807;28;20237;-84
2022/05/05 07:59:26;;;;;;;0.77;0.70;;;16.20;93.10;;;;;;5015108;28;20278;-83
2022/05/05 08:01:52;;;;;;;2.30;1.05;;;;;;;;;;5014953;28;20195;-83
2022/05/05 08:04:18;;;;;;;0.98;0.73;;;;;;;;;;4998024;28;20178;-83
2022/05/05 08:06:44;;;;;;;1.63;0.88;;;;;;;;;;4981414;28;20189;-86
2022/05/05 08:09:11;;;;;;;3.55;1.35;;;15.70;92.80;;;;;;4997925;28;20217;-83
2022/05/05 08:11:37;;;;;;;1.00;0.90;;;15.90;92.90;;;;;;4997471;28;20173;-83
2022/05/05 08:14:04;;;;;;;1.10;0.88;;;15.70;92.50;;;;;;5014554;28;20272;-83
2022/05/05 08:16:30;;;;;;;0.60;0.60;;;;;;;;;;5014596;28;20666;-84
2022/05/05 08:18:56;;;;;;;0.70;0.63;;;15.80;92.50;;;;;;5015085;28;20185;-84
2022/05/05 08:21:22;;;;;;;1.67;0.90;;;;;;;;;;4997230;28;20248;-83
2022/05/05 08:23:48;;;;;;;0.75;0.68;;;;;;;;;;4981346;28;20656;-86
2022/05/05 08:28:58;;;;;;;3.10;1.20;;;16.90;91.80;;;;;;5014837;28;20619;-84
2022/05/05 08:31:24;;;;;;;1.13;1.02;;;;;;;;;;4980764;28;20185;-84
2022/05/05 08:33:50;;;;;;;0.80;0.70;;;16.50;91.70;;;;;;4997058;28;20177;-84
2022/05/05 08:36:16;;;;;;;2.38;1.10;;;;;;;;;;4997293;28;20211;-84
2022/05/05 08:38:42;;;;;;;3.65;1.20;;;17.00;91.50;;;;;;5014799;28;20181;-84
2022/05/05 08:41:10;;;;;;;2.78;0.93;;;17.00;61.70;;;;;;4995996;28;20223;-83
2022/05/05 08:43:36;;;;;;;1.00;0.95;;;17.40;91.70;;;;;;4995079;28;20183;-85
2022/05/05 08:46:03;;;;;;;1.30;0.95;;;17.20;62.50;;;;;;4993561;28;20200;-84
2022/05/05 08:48:31;;;;;;;2.70;1.52;;;17.30;91.40;;;;;;4993275;28;20172;-84
2022/05/05 08:51:00;;;;;;;1.33;1.00;;;17.40;61.80;;;;;;4995450;28;20183;-85
2022/05/05 08:53:33;;;;;;;1.45;0.98;;;17.20;90.30;;;;;;5011621;28;20166;-84
2022/05/05 08:56:00;;;;;;;0.75;0.70;;;17.40;89.80;;;;;;4996882;28;20201;-84
2022/05/05 08:58:27;;;;;;;2.05;1.00;;;17.40;88.80;;;;;;4996593;28;20243;-84
2022/05/05 09:00:53;;;;;;;4.03;1.40;;;17.30;89.60;;;;;;5016334;28;20173;-84
2022/05/05 09:03:19;;;;;;;2.58;0.85;;;17.40;89.50;;;;;;5005437;28;20205;-84
2022/05/05 09:05:51;;;;;;;1.33;0.90;;;18.20;90.80;;;;;;5006354;28;20177;-84
2022/05/05 09:08:24;;;;;;;1.30;0.95;;;;;;;;;;5023161;28;20256;-84
2022/05/05 09:10:50;;;;;;;4.22;1.25;;;;;;;;;;5028476;28;20193;-88
2022/05/05 09:13:27;;;;;;;1.02;0.80;;;18.40;90.30;;;;;;5021055;28;20169;-84
2022/05/05 09:15:53;;;;;;;1.02;0.95;;;17.60;90.20;;;;;;5038142;28;20208;-86
2022/05/05 09:18:28;;;;;;;1.38;1.08;;;18.10;90.60;;;;;;5021345;28;20153;-85
2022/05/05 09:20:54;;;;;;;3.63;0.88;;;;;;;;;;5030644;28;20195;-87
2022/05/05 09:26:26;;;;;;;1.08;0.80;;;18.40;90.30;;;;;;5015940;28;20186;-83
2022/05/05 09:28:52;;;;;;;1.23;0.70;;;;;;;;;;4984228;28;20190;-86
2022/05/05 09:31:18;;;;;;;1.17;0.90;;;18.50;59.30;;;;;;5001468;28;20165;-88
2022/05/05 09:33:45;;;;;;;1.15;0.90;;;18.50;88.30;;;;;;5012069;28;20196;-84
2022/05/05 09:36:14;;;;;;;1.90;0.90;;;18.80;58.80;;;;;;5014469;28;20208;-84
2022/05/05 09:38:58;;;;;;;3.10;1.05;;;19.00;59.50;;;;;;4997600;28;20235;-85
2022/05/05 09:41:24;;;;;;;1.55;1.05;;;;;;;;;;4998154;28;20235;-85
2022/05/05 09:43:53;;;;;;;1.65;0.65;;;18.90;86.70;;;;;;4998318;28;20187;-84
2022/05/05 09:46:21;;;;;;;2.13;1.05;;;19.40;86.30;;;;;;4997734;28;20183;-84
2022/05/05 09:48:47;;;;;;;0.93;0.82;;;19.50;87.50;;;;;;4996845;28;20189;-85
2022/05/05 09:51:14;;;;;;;1.08;0.75;;;19.50;58.80;;;;;;4996358;28;20184;-85
2022/05/05 09:59:17;;;;;;;2.05;1.00;;;20.00;86.30;;;;;;5015242;28;20183;-85
2022/05/05 10:01:46;;;;;;;1.33;1.05;;;;;;;;;;5014938;28;20275;-84
2022/05/05 10:04:14;;;;;;;5.57;0.90;;;19.20;83.20;;;;;;5014214;28;20629;-85
2022/05/05 10:06:43;;;;;;;2.67;1.33;;;19.90;56.30;;;;;;4996097;28;20259;-84
2022/05/05 10:09:14;;;;;;;1.35;1.00;;;20.60;82.70;;;;;;5013601;28;20186;-84
2022/05/05 10:11:41;;;;;;;2.35;1.00;;;20.50;82.10;;;;;;4996229;28;20177;-84
2022/05/05 10:14:11;;;;;;;2.92;0.90;;;19.80;77.90;;;;;;4979747;28;20185;-84
2022/05/05 10:16:38;;;;;;;1.60;1.15;;;19.80;55.00;;;;;;4995993;28;20319;-84
2022/05/05 10:19:06;;;;;;;1.33;0.88;;;;;;;;;;4995926;28;20205;-85
2022/05/05 10:21:37;;;;;;;2.35;1.10;;;19.90;54.50;;;;;;5012891;28;20180;-84
2022/05/05 10:24:12;;;;;;;1.27;1.00;;;20.30;55.50;;;;;;5013048;28;20673;-85
2022/05/05 10:26:39;;;;;;;1.45;0.77;;;19.70;82.00;;;;;;4995072;28;20184;-85
2022/05/05 10:29:05;;;;;;;1.05;0.88;;;;;;;;;;4994553;28;20174;-86
2022/05/05 10:31:31;;;;;;;2.22;1.10;;;21.10;64.80;;;;;;4996508;28;20185;-84
2022/05/05 10:34:02;;;;;;;1.13;1.02;;;20.70;60.40;;;;;;4997809;28;20242;-84
2022/05/05 10:36:29;;;;;;;2.00;0.93;;;20.40;53.50;;;;;;4998012;28;20243;-85
2022/05/05 10:38:55;;;;;;;1.00;0.90;;;;;;;;;;4996442;28;20189;-84
2022/05/05 10:41:40;;;;;;;2.58;0.95;;;20.50;52.40;;;;;;5014334;28;20182;-85
2022/05/05 10:44:23;;;;;;;3.50;1.00;;;21.20;77.40;;;;;;4994041;28;20197;-84
2022/05/05 10:46:53;;;;;;;2.33;1.23;;;20.00;80.20;;;;;;4998625;28;20189;-86
2022/05/05 10:49:32;;;;;;;1.60;1.00;;;20.80;80.90;;;;;;5015577;28;20535;-85
2022/05/05 10:52:16;;;;;;;1.52;1.10;;;20.80;52.10;;;;;;5016157;28;20201;-86
2022/05/05 10:54:53;;;;;;;1.70;1.00;;;20.80;80.20;;;;;;4998530;28;20188;-84
2022/05/05 10:57:27;;;;;;;0.90;0.88;;;20.50;80.50;;;;;;5014897;28;20599;-85
2022/05/05 11:00:19;;;;;;;1.65;1.25;;;20.80;73.30;;;;;;4998080;28;20275;-85
2022/05/05 11:03:02;;;;;;;1.55;1.00;;;21.80;79.90;;;;;;5015366;28;20533;-85
2022/05/05 11:05:36;;;;;;;1.17;1.10;;;21.40;52.30;;;;;;4997903;28;20185;-86
2022/05/05 11:08:14;;;;;;;1.90;0.90;;;21.60;77.90;;;;;;5015652;28;20244;-85
2022/05/05 11:10:45;;;;;;;1.10;1.00;;;21.80;78.10;;;;;;4998286;28;20667;-85
2022/05/05 11:13:40;;;;;;;1.73;1.02;;;21.60;79.10;;;;;;4997126;28;20635;-85
2022/05/05 11:22:24;;;;;;;1.15;1.05;;;21.70;52.10;;;;;;5020233;28;20188;-86
2022/05/05 11:24:52;;;;;;;1.35;1.20;;;21.70;51.40;;;;;;5020801;28;20256;-85
2022/05/05 11:27:23;;;;;;;1.45;1.35;;;21.80;52.20;;;;;;5015491;28;20200;-86
2022/05/05 11:29:51;;;;;;;2.45;1.35;;;;;;;;;;5014023;28;20188;-85
2022/05/05 11:32:18;;;;;;;1.67;1.20;;;22.20;76.90;;;;;;4998884;28;20193;-85
2022/05/05 11:34:45;;;;;;;1.25;1.05;;;;;;;;;;4968541;28;20662;-85
2022/05/05 11:37:11;;;;;;;2.60;1.20;;;;;;;;;;5003575;28;20224;-85
2022/05/05 11:39:37;;;;;;;3.28;1.58;;;;;;;;;;5003231;28;20247;-85
2022/05/05 11:42:06;;;;;;;2.15;1.60;;;22.00;78.60;;;;;;5014642;28;20211;-85
2022/05/05 11:44:35;;;;;;;1.08;0.98;;;21.60;77.50;;;;;;5015625;28;20196;-85
2022/05/05 11:47:12;;;;;;;1.10;0.98;;;21.60;51.00;;;;;;5015884;28;20192;-85
2022/05/05 11:49:46;;;;;;;1.13;1.00;;;22.20;77.90;;;;;;5014808;28;20200;-85
2022/05/05 11:52:17;;;;;;;1.17;1.00;;;21.80;50.70;;;;;;5010812;28;20178;-86
2022/05/05 11:54:47;;;;;;;1.05;0.95;;;21.80;51.50;;;;;;5014334;28;20231;-86
2022/05/05 11:57:29;;;;;;;5.18;1.40;;;21.90;50.50;;;;;;4995792;28;20237;-85
2022/05/05 12:02:41;;;;;;;1.80;1.55;;;;;;;;;;5014917;28;20196;-84
2022/05/05 12:05:08;;;;;;;4.72;1.77;;;21.70;74.20;;;;;;4997249;28;20204;-84
2022/05/05 12:07:34;;;;;;;1.10;1.05;;;;;;;;;;4961176;28;20652;-85
2022/05/05 12:10:05;;;;;;;2.33;1.38;;;22.10;49.20;;;;;;4985298;28;20246;-84
2022/05/05 12:12:31;;;;;;;3.15;2.03;;;;;;;;;;5014213;28;20185;-84
2022/05/05 12:14:58;;;;;;;2.67;1.38;;;21.70;50.90;;;;;;5013929;28;20181;-84
2022/05/05 12:17:41;;;;;;;1.92;1.60;;;21.60;52.00;;;;;;5012670;28;20205;-84
2022/05/05 12:20:09;;;;;;;1.30;1.15;;;21.90;51.10;;;;;;5011823;28;20722;-84
2022/05/05 12:22:40;;;;;;;1.98;0.95;;;22.10;50.70;;;;;;4980092;28;20181;-83
2022/05/05 12:25:14;;;;;;;3.40;1.20;;;22.20;48.10;;;;;;5014224;28;20176;-83
2022/05/05 12:27:53;;;;;;;1.77;1.00;;;22.10;51.10;;;;;;4996411;28;20187;-84
2022/05/05 12:30:42;;;;;;;2.40;1.17;;;21.80;54.70;;;;;;4994392;28;20260;-84
2022/05/05 12:33:09;;;;;;;1.20;1.10;;;22.40;50.00;;;;;;4996098;28;20272;-85
2022/05/05 12:35:40;;;;;;;1.85;1.33;;;22.40;49.90;;;;;;4996668;28;20177;-84
2022/05/05 12:38:08;;;;;;;1.20;1.10;;;22.30;49.80;;;;;;4996525;28;20188;-84
2022/05/05 12:40:35;;;;;;;2.17;1.50;;;;;;;;;;5012694;28;20185;-84
2022/05/05 12:43:01;;;;;;;2.05;1.08;;;;;;;;;;4996850;28;20185;-84
2022/05/05 12:45:30;;;;;;;2.08;1.20;;;21.50;50.10;;;;;;5014633;28;20173;-84
2022/05/05 12:47:59;;;;;;;2.72;1.40;;;22.90;49.90;;;;;;4997013;28;20181;-84
2022/05/05 12:50:47;;;;;;;1.77;1.25;;;22.70;75.30;;;;;;5013674;28;20199;-84
2022/05/05 13:01:46;;;;;;;3.05;1.42;;;23.20;49.00;;;;;;5014175;28;20320;-85
2022/05/05 13:04:15;;;;;;;1.48;1.25;;;23.20;48.20;;;;;;4995518;28;20174;-85
2022/05/05 13:06:42;;;;;;;5.90;2.75;;;23.10;50.40;;;;;;4995957;28;20237;-84
2022/05/05 13:09:10;;;;;;;1.23;1.13;;;23.20;48.90;;;;;;5013047;28;20178;-85
2022/05/05 13:11:44;;;;;;;3.75;1.50;;;23.20;49.30;;;;;;5012041;28;20181;-85
2022/05/05 13:14:10;;;;;;;1.98;1.40;;;;;;;;;;5011679;28;20157;-85
2022/05/05 13:16:37;;;;;;;1.63;1.13;;;23.40;48.90;;;;;;5011916;28;20321;-84
2022/05/05 13:19:04;;;;;;;1.20;1.08;;;23.20;49.50;;;;;;5011825;28;20268;-84
2022/05/05 13:21:33;;;;;;;1.65;1.50;;;23.30;48.90;;;;;;4994258;28;20631;-85
2022/05/05 13:23:59;;;;;;;1.38;1.13;;;;;;;;;;4995183;28;20177;-83
2022/05/05 13:26:25;;;;;;;2.47;1.48;;;;;;;;;;4995698;28;20656;-86
2022/05/05 13:28:51;;;;;;;2.47;1.30;;;;;;;;;;5013929;28;20178;-83
2022/05/05 13:31:17;;;;;;;1.33;1.10;;;;;;;;;;4996505;28;20227;-84
2022/05/05 13:33:43;;;;;;;2.35;1.50;;;;;;;;;;4996464;28;20579;-84
2022/05/05 13:36:09;;;;;;;1.38;1.25;;;;;;;;;;4979991;28;20220;-84
2022/05/05 13:38:35;;;;;;;2.92;1.45;;;;;;;;;;5013137;28;20664;-84
2022/05/05 13:41:03;;;;;;;2.15;1.42;;;;;;;;;;4996576;28;20255;-83
2022/05/05 13:43:29;;;;;;;1.42;1.30;;;;;;;;;;5013726;28;20281;-85
2022/05/05 13:45:55;;;;;;;2.13;1.33;;;;;;;;;;4996259;28;20668;-83
2022/05/05 13:48:21;;;;;;;3.67;1.50;;;;;;;;;;5013356;28;20177;-85
2022/05/05 13:50:47;;;;;;;1.65;1.33;;;;;;;;;;4996164;28;20638;-83
2022/05/05 13:53:13;;;;;;;1.27;1.17;;;;;;;;;;5012163;28;20185;-84
2022/05/05 13:55:39;;;;;;;1.33;1.23;;;;;;;;;;4995424;28;20690;-84
2022/05/05 13:58:06;;;;;;;1.85;1.33;;;;;;;;;;5013459;28;20248;-84
2022/05/05 14:00:32;;;;;;;1.65;1.27;;;;;;;;;;5013209;28;20174;-84
2022/05/05 14:02:58;;;;;;;1.20;1.10;;;;;;;;;;5013622;28;20191;-84
2022/05/05 14:05:25;;;;;;;1.65;1.25;;;23.60;47.60;;;;;;5012888;28;20179;-85
2022/05/05 14:13:20;;;;;;;1.52;1.27;;;;;;;;;;5013023;28;20725;-84
2022/05/05 14:15:46;;;;;;;5.68;1.67;;;;;;;;;;5013588;28;20181;-84
2022/05/05 14:18:12;;;;;;;4.18;1.88;;;;;;;;;;4999649;28;20195;-84
2022/05/05 14:20:38;;;;;;;2.25;1.30;;;;;;;;;;5016940;28;20232;-84
2022/05/05 14:23:05;;;;;;;1.48;1.20;;;;;;;;;;4983148;28;20185;-85
2022/05/05 14:25:31;;;;;;;1.90;1.48;;;;;;;;;;5017069;28;20639;-84
2022/05/05 14:27:57;;;;;;;2.47;1.60;;;;;;;;;;5017534;28;20181;-83
2022/05/05 14:30:24;;;;;;;1.95;1.38;;;;;;;;;;5017657;28;20181;-83
2022/05/05 14:32:50;;;;;;;1.83;1.40;;;;;;;;;;5019141;28;20182;-83
2022/05/05 14:35:16;;;;;;;1.10;0.98;;;;;;;;;;5017481;28;20177;-84
2022/05/05 14:37:42;;;;;;;2.13;1.63;;;22.70;70.30;;;;;;5015557;28;20696;-84
2022/05/05 14:40:08;;;;;;;1.50;1.23;;;23.30;69.90;;;;;;5018035;28;20176;-84
2022/05/05 14:42:34;;;;;;;1.85;1.48;;;22.40;70.00;;;;;;4999983;28;20185;-85
2022/05/05 14:45:01;;;;;;;2.17;1.65;;;;;;;;;;5000031;28;20196;-83
2022/05/05 14:47:28;;;;;;;1.75;1.40;;;;;;;;;;5017828;28;20185;-84
2022/05/05 14:49:54;;;;;;;1.85;1.38;;;;;;;;;;5017088;28;20737;-83
2022/05/05 14:52:21;;;;;;;2.50;1.42;;;22.70;48.40;;;;;;4983408;28;20181;-83
2022/05/05 14:54:47;;;;;;;1.60;1.40;;;;;;;;;;5017130;28;20186;-84
2022/05/05 14:57:15;;;;;;;2.00;1.40;;;22.80;48.10;;;;;;5016941;28;20241;-83